Time;durP1;ratioP1;P1;durP2;ratioP2;P2;SDS_P1;SDS_P2;PMS_P1;PMS_P2;Temp;Humidity;BMP_temperature;BMP_pressure;BME280_temperature;BME280_humidity;BME280_pressure;Samples;Min_cycle;Max_cycle;Signal;HPM_P1;HPM_P2
2022/03/28 00:02:15;;;;;;;10.18;5.90;;;6.10;99.90;;;;;;4997220;28;20531;-83
2022/03/28 00:04:40;;;;;;;15.57;7.07;;;6.10;99.90;;;;;;4997345;28;20426;-83
2022/03/28 00:07:06;;;;;;;18.48;5.45;;;6.10;99.90;;;;;;4997176;28;20038;-83
2022/03/28 00:09:32;;;;;;;9.32;5.57;;;6.10;99.90;;;;;;4997281;28;20023;-83
2022/03/28 00:11:57;;;;;;;11.55;5.65;;;6.10;99.90;;;;;;4997224;28;20388;-83
2022/03/28 00:14:23;;;;;;;19.38;8.32;;;6.10;99.90;;;;;;4997020;28;20394;-83
2022/03/28 00:16:48;;;;;;;9.80;5.03;;;6.00;99.90;;;;;;4997242;28;20085;-83
2022/03/28 00:19:14;;;;;;;12.32;7.25;;;6.00;99.90;;;;;;4996995;28;20504;-83
2022/03/28 00:21:40;;;;;;;14.27;8.23;;;6.00;99.90;;;;;;4996913;28;20045;-83
2022/03/28 00:24:05;;;;;;;22.55;8.48;;;6.10;99.90;;;;;;4996520;28;20033;-83
2022/03/28 00:29:55;;;;;;;15.98;7.18;;;6.10;99.90;;;;;;4996816;28;20053;-83
2022/03/28 00:32:21;;;;;;;8.07;4.88;;;6.10;99.90;;;;;;4996670;28;20034;-83
2022/03/28 00:34:46;;;;;;;17.13;9.00;;;6.10;99.90;;;;;;4996778;28;20509;-83
2022/03/28 00:37:12;;;;;;;15.43;8.45;;;6.10;99.90;;;;;;4995942;28;20030;-83
2022/03/28 00:39:37;;;;;;;12.60;6.38;;;6.00;99.90;;;;;;4996317;28;20030;-83
2022/03/28 00:42:03;;;;;;;15.73;7.97;;;6.00;99.90;;;;;;4996353;28;20137;-83
2022/03/28 00:44:32;;;;;;;13.63;6.68;;;6.00;99.90;;;;;;4996042;28;20022;-82
2022/03/28 00:50:30;;;;;;;9.23;5.60;;;6.00;99.90;;;;;;4977452;28;20030;-83
2022/03/28 00:52:59;;;;;;;11.25;6.55;;;6.00;99.90;;;;;;4977189;28;20483;-83
2022/03/28 00:55:25;;;;;;;10.15;6.82;;;6.00;99.90;;;;;;4976977;28;20034;-83
2022/03/28 00:57:50;;;;;;;9.90;6.80;;;5.90;99.90;;;;;;4991920;28;20058;-83
2022/03/28 01:00:17;;;;;;;9.02;5.43;;;5.90;99.90;;;;;;4994733;28;20057;-83
2022/03/28 01:02:43;;;;;;;12.40;6.57;;;6.00;99.90;;;;;;4996025;28;20117;-83
2022/03/28 01:05:10;;;;;;;8.95;5.93;;;6.00;99.90;;;;;;4996198;28;20030;-82
2022/03/28 01:07:37;;;;;;;11.13;6.80;;;6.00;99.90;;;;;;4996147;28;20136;-83
2022/03/28 01:10:03;;;;;;;12.23;5.93;;;6.00;99.90;;;;;;4996152;28;20022;-83
2022/03/28 01:12:34;;;;;;;14.65;6.63;;;6.00;99.90;;;;;;4996144;28;20019;-83
2022/03/28 01:15:00;;;;;;;11.43;6.47;;;6.00;99.90;;;;;;4977645;28;20027;-83
2022/03/28 01:20:21;;;;;;;14.48;6.65;;;6.10;99.90;;;;;;4982283;28;20061;-83
2022/03/28 01:22:46;;;;;;;12.02;7.07;;;6.00;99.90;;;;;;4995923;28;20029;-83
2022/03/28 01:25:12;;;;;;;11.25;6.60;;;5.90;99.90;;;;;;4995657;28;20382;-83
2022/03/28 01:27:59;;;;;;;10.52;7.07;;;6.00;99.90;;;;;;4994192;28;20077;-83
2022/03/28 01:30:26;;;;;;;13.88;7.38;;;6.00;99.90;;;;;;4995600;28;20729;-83
2022/03/28 01:32:52;;;;;;;11.65;7.03;;;5.90;99.90;;;;;;4995626;28;20026;-83
2022/03/28 01:35:36;;;;;;;10.45;7.05;;;5.90;99.90;;;;;;4995376;28;20381;-83
2022/03/28 01:38:04;;;;;;;17.77;7.50;;;6.00;99.90;;;;;;4994009;28;20101;-83
2022/03/28 01:40:30;;;;;;;11.20;6.30;;;6.00;99.90;;;;;;4995142;28;20033;-83
2022/03/28 01:42:56;;;;;;;13.15;7.20;;;6.10;99.90;;;;;;4995560;28;20023;-83
2022/03/28 01:45:22;;;;;;;13.65;7.32;;;6.10;99.90;;;;;;4995232;28;20149;-83
2022/03/28 01:47:48;;;;;;;17.17;7.93;;;6.10;99.90;;;;;;4995516;28;20026;-83
2022/03/28 01:50:14;;;;;;;14.30;7.50;;;6.10;99.90;;;;;;4995301;28;20026;-83
2022/03/28 01:52:40;;;;;;;18.67;9.13;;;6.00;99.90;;;;;;4995198;28;20036;-83
2022/03/28 01:55:07;;;;;;;26.23;10.18;;;6.00;99.90;;;;;;4995444;28;20030;-83
2022/03/28 01:57:33;;;;;;;29.27;10.95;;;6.00;99.90;;;;;;4993833;28;20109;-83
2022/03/28 01:59:59;;;;;;;33.25;12.10;;;6.00;99.90;;;;;;4995025;28;20106;-83
2022/03/28 02:02:25;;;;;;;31.60;12.70;;;5.90;99.90;;;;;;4995380;28;20466;-83
2022/03/28 02:04:50;;;;;;;41.88;16.35;;;6.00;99.90;;;;;;4995079;28;20029;-83
2022/03/28 02:07:17;;;;;;;40.40;16.02;;;6.00;99.90;;;;;;4995135;28;20026;-83
2022/03/28 02:09:43;;;;;;;33.72;15.10;;;6.00;99.90;;;;;;4993660;28;20034;-83
2022/03/28 02:12:09;;;;;;;21.05;10.57;;;5.90;99.90;;;;;;4995017;28;20027;-83
2022/03/28 02:14:35;;;;;;;23.20;10.80;;;5.90;99.90;;;;;;4994797;28;20486;-83
2022/03/28 02:17:00;;;;;;;18.08;10.05;;;5.80;99.90;;;;;;4995129;28;20030;-83
2022/03/28 02:19:26;;;;;;;17.17;9.55;;;5.80;99.90;;;;;;4995087;28;20026;-83
2022/03/28 02:21:51;;;;;;;13.50;7.60;;;5.80;99.90;;;;;;4994954;28;20101;-83
2022/03/28 02:24:17;;;;;;;18.40;9.98;;;5.80;99.90;;;;;;4994695;28;20490;-83
2022/03/28 02:26:59;;;;;;;14.98;8.88;;;5.80;99.90;;;;;;4994521;28;20478;-83
2022/03/28 02:29:24;;;;;;;17.50;9.73;;;5.80;99.90;;;;;;4995212;28;20160;-83
2022/03/28 02:31:50;;;;;;;21.30;8.88;;;5.90;99.90;;;;;;4994453;28;20058;-83
2022/03/28 02:34:16;;;;;;;16.95;9.30;;;5.90;99.90;;;;;;4994693;28;20101;-83
2022/03/28 02:36:41;;;;;;;18.45;9.23;;;5.90;99.90;;;;;;4994183;28;20387;-83
2022/03/28 02:39:07;;;;;;;16.20;8.48;;;5.80;99.90;;;;;;4993913;28;20022;-83
2022/03/28 02:41:32;;;;;;;11.13;5.72;;;5.90;99.90;;;;;;4994767;28;20070;-83
2022/03/28 02:43:58;;;;;;;8.65;4.78;;;5.80;99.90;;;;;;4993716;28;20023;-83
2022/03/28 02:46:24;;;;;;;9.35;4.18;;;5.80;99.90;;;;;;4994463;28;20050;-83
2022/03/28 02:48:49;;;;;;;13.13;3.33;;;5.80;99.90;;;;;;4994600;28;20118;-82
2022/03/28 02:51:15;;;;;;;23.65;4.80;;;5.80;99.90;;;;;;4994914;28;20030;-83
2022/03/28 02:53:41;;;;;;;5.65;3.83;;;5.80;99.90;;;;;;4994877;28;20027;-83
2022/03/28 02:56:06;;;;;;;3.60;2.30;;;5.70;99.90;;;;;;4994732;28;20524;-83
2022/03/28 02:58:32;;;;;;;13.88;3.10;;;5.80;99.90;;;;;;4994472;28;20033;-83
2022/03/28 03:00:57;;;;;;;13.23;3.40;;;5.70;99.90;;;;;;4994573;28;20022;-83
2022/03/28 03:03:23;;;;;;;6.95;2.80;;;5.70;99.90;;;;;;4994768;28;20023;-82
2022/03/28 03:05:52;;;;;;;14.10;4.22;;;5.70;99.90;;;;;;4994375;28;20513;-83
2022/03/28 03:08:17;;;;;;;8.85;2.67;;;5.70;99.90;;;;;;4994677;28;20053;-83
2022/03/28 03:10:44;;;;;;;21.15;5.00;;;5.70;99.90;;;;;;4994774;28;20410;-83
2022/03/28 03:13:09;;;;;;;7.18;3.40;;;5.60;99.90;;;;;;4994815;28;20038;-83
2022/03/28 03:15:36;;;;;;;13.18;3.17;;;5.70;99.90;;;;;;4994955;28;20104;-83
2022/03/28 03:18:04;;;;;;;15.77;4.53;;;5.60;99.90;;;;;;4995345;28;20033;-83
2022/03/28 03:20:30;;;;;;;19.88;3.50;;;5.50;99.90;;;;;;4995453;28;20089;-83
2022/03/28 03:22:56;;;;;;;12.15;4.72;;;5.60;99.90;;;;;;4994791;28;20026;-83
2022/03/28 03:25:21;;;;;;;10.18;2.80;;;5.50;99.90;;;;;;4994658;28;20102;-82
2022/03/28 03:27:51;;;;;;;14.00;3.15;;;5.50;99.90;;;;;;4994898;28;20030;-83
2022/03/28 03:30:18;;;;;;;16.38;3.33;;;5.50;99.90;;;;;;4995240;28;20065;-83
2022/03/28 03:32:44;;;;;;;4.28;2.47;;;5.40;99.90;;;;;;4994434;28;20030;-83
2022/03/28 03:35:10;;;;;;;5.95;2.63;;;5.50;99.90;;;;;;4994547;28;20085;-83
2022/03/28 03:37:36;;;;;;;12.13;3.10;;;5.40;99.90;;;;;;4994518;28;20105;-83
2022/03/28 03:40:03;;;;;;;9.00;2.30;;;5.50;99.90;;;;;;4994167;28;20064;-83
2022/03/28 03:42:29;;;;;;;5.13;2.13;;;5.40;99.90;;;;;;4992634;28;20027;-83
2022/03/28 03:44:54;;;;;;;10.05;2.60;;;5.40;99.90;;;;;;4993985;28;20058;-83
2022/03/28 03:47:20;;;;;;;6.57;1.85;;;5.50;99.90;;;;;;4994257;28;20030;-83
2022/03/28 03:49:45;;;;;;;3.65;1.98;;;5.50;99.90;;;;;;4996107;28;20030;-83
2022/03/28 03:52:11;;;;;;;8.32;2.40;;;5.40;99.90;;;;;;4997904;28;20025;-83
2022/03/28 03:54:36;;;;;;;9.57;2.97;;;5.40;99.90;;;;;;4998455;28;20022;-83
2022/03/28 03:57:02;;;;;;;5.70;2.88;;;5.40;99.90;;;;;;4998437;28;20134;-83
2022/03/28 03:59:28;;;;;;;4.65;2.35;;;5.40;99.90;;;;;;4998001;28;20037;-83
2022/03/28 04:01:53;;;;;;;6.43;1.95;;;5.40;99.90;;;;;;4997827;28;20532;-84
2022/03/28 04:04:19;;;;;;;3.60;1.63;;;5.40;99.90;;;;;;4997770;28;20033;-83
2022/03/28 04:06:44;;;;;;;3.85;1.77;;;5.50;99.90;;;;;;4997762;28;20038;-83
2022/03/28 04:09:10;;;;;;;6.20;1.63;;;5.40;99.90;;;;;;4998175;28;20548;-83
2022/03/28 04:11:36;;;;;;;5.53;2.22;;;5.40;99.90;;;;;;4997964;28;20434;-83
2022/03/28 04:14:02;;;;;;;5.80;2.25;;;5.30;99.90;;;;;;4998291;28;20014;-83
2022/03/28 04:16:28;;;;;;;2.80;1.33;;;5.30;99.90;;;;;;4997770;28;20026;-83
2022/03/28 04:18:53;;;;;;;6.32;2.15;;;5.30;99.90;;;;;;4997505;28;20054;-83
2022/03/28 04:21:19;;;;;;;7.57;1.75;;;5.20;99.90;;;;;;4997427;28;20022;-83
2022/03/28 04:23:44;;;;;;;3.67;1.70;;;5.30;99.90;;;;;;4996735;28;20373;-83
2022/03/28 04:26:10;;;;;;;4.18;2.00;;;5.20;99.90;;;;;;4997476;28;20019;-83
2022/03/28 04:28:37;;;;;;;5.95;1.85;;;5.20;99.90;;;;;;4997223;28;20026;-83
2022/03/28 04:31:02;;;;;;;3.47;1.77;;;5.30;99.90;;;;;;4996991;28;20157;-83
2022/03/28 04:33:28;;;;;;;3.55;1.70;;;5.20;99.90;;;;;;4996607;28;20471;-83
2022/03/28 04:35:54;;;;;;;3.58;1.77;;;5.20;99.90;;;;;;4996673;28;20030;-83
2022/03/28 04:38:20;;;;;;;6.18;2.78;;;5.20;99.90;;;;;;4996851;28;20484;-83
2022/03/28 04:40:45;;;;;;;4.47;1.50;;;5.10;99.90;;;;;;4996850;28;20030;-83
2022/03/28 04:43:12;;;;;;;6.63;3.05;;;5.10;99.90;;;;;;4997109;28;20054;-84
2022/03/28 04:45:37;;;;;;;14.13;2.92;;;5.10;99.90;;;;;;4996583;28;20077;-83
2022/03/28 04:48:04;;;;;;;7.45;2.97;;;5.10;99.90;;;;;;4996043;28;20057;-82
2022/03/28 04:50:29;;;;;;;5.82;2.97;;;5.20;99.90;;;;;;4991072;28;20503;-82
2022/03/28 04:52:55;;;;;;;15.10;3.72;;;5.10;99.90;;;;;;4994000;28;20030;-82
2022/03/28 04:55:20;;;;;;;13.35;3.60;;;5.20;99.90;;;;;;4988710;28;20026;-82
2022/03/28 04:57:46;;;;;;;11.68;4.28;;;5.20;99.90;;;;;;4976451;28;20027;-86
2022/03/28 05:00:12;;;;;;;5.57;3.40;;;5.20;99.90;;;;;;4975877;28;20067;-84
2022/03/28 05:02:38;;;;;;;8.13;4.10;;;5.30;99.90;;;;;;4976389;28;20047;-83
2022/03/28 05:05:05;;;;;;;6.80;3.10;;;5.30;99.90;;;;;;4975346;28;20109;-82
2022/03/28 05:07:31;;;;;;;9.43;4.95;;;5.30;99.90;;;;;;4992767;28;20057;-83
2022/03/28 05:09:57;;;;;;;7.60;4.47;;;5.30;99.90;;;;;;4995238;28;20034;-83
2022/03/28 05:12:24;;;;;;;8.02;4.45;;;5.30;99.90;;;;;;4997248;28;20102;-82
2022/03/28 05:14:51;;;;;;;8.43;4.75;;;5.30;99.90;;;;;;4996832;28;20347;-83
2022/03/28 05:17:40;;;;;;;8.70;4.30;;;5.30;99.90;;;;;;4997026;28;20034;-83
2022/03/28 05:20:08;;;;;;;8.00;4.93;;;5.30;99.90;;;;;;4997271;28;20072;-83
2022/03/28 05:22:33;;;;;;;7.22;4.25;;;5.30;99.90;;;;;;4997853;28;20613;-83
2022/03/28 05:24:59;;;;;;;6.32;4.47;;;5.30;99.90;;;;;;4996802;28;20774;-83
2022/03/28 05:27:28;;;;;;;7.10;4.38;;;5.30;99.90;;;;;;4996937;28;20030;-83
2022/03/28 05:29:54;;;;;;;8.68;4.80;;;5.30;99.90;;;;;;4997028;28;20057;-82
2022/03/28 05:32:20;;;;;;;9.88;4.78;;;5.30;99.90;;;;;;4997189;28;20022;-83
2022/03/28 05:34:45;;;;;;;8.30;4.32;;;5.30;99.90;;;;;;4996480;28;20720;-83
2022/03/28 05:37:16;;;;;;;8.80;5.65;;;5.40;99.90;;;;;;4996216;28;20030;-82
2022/03/28 05:39:43;;;;;;;;;;;5.40;99.90;;;;;;4997069;28;20046;-83
2022/03/28 05:42:08;;;;;;;8.23;5.30;;;5.40;99.90;;;;;;4997076;28;19912;-83
2022/03/28 05:44:35;;;;;;;10.10;5.03;;;5.40;99.90;;;;;;4996923;28;20022;-82
2022/03/28 05:47:00;;;;;;;8.57;5.30;;;5.40;99.90;;;;;;4997165;28;20094;-83
2022/03/28 05:49:26;;;;;;;9.27;5.47;;;5.40;99.90;;;;;;4997587;28;20077;-82
2022/03/28 05:51:52;;;;;;;8.73;4.80;;;5.40;99.90;;;;;;4997685;28;20026;-83
2022/03/28 05:54:19;;;;;;;8.55;5.00;;;5.40;99.90;;;;;;4996903;28;20102;-82
2022/03/28 05:56:44;;;;;;;8.70;4.78;;;5.40;99.90;;;;;;4996484;28;20034;-82
2022/03/28 05:59:10;;;;;;;8.05;4.57;;;5.40;99.90;;;;;;4996232;28;20033;-82
2022/03/28 06:01:37;;;;;;;8.70;4.78;;;5.40;99.90;;;;;;4980279;28;20077;-83
2022/03/28 06:04:03;;;;;;;10.23;5.07;;;5.50;99.90;;;;;;4993048;28;20031;-82
2022/03/28 06:06:29;;;;;;;11.60;5.50;;;5.50;99.90;;;;;;4995036;28;20101;-83
2022/03/28 06:08:55;;;;;;;9.70;5.95;;;5.50;99.90;;;;;;4994634;28;20033;-83
2022/03/28 06:11:21;;;;;;;10.20;6.40;;;5.50;99.90;;;;;;4994607;28;20019;-82
2022/03/28 06:13:46;;;;;;;9.43;6.43;;;5.60;99.90;;;;;;4994474;28;20359;-82
2022/03/28 06:16:13;;;;;;;7.35;5.13;;;5.50;99.90;;;;;;4994685;28;20022;-82
2022/03/28 06:18:39;;;;;;;9.52;5.10;;;5.60;99.90;;;;;;4994992;28;21163;-83
2022/03/28 06:21:05;;;;;;;7.97;5.03;;;5.60;99.90;;;;;;4993448;28;20033;-82
2022/03/28 06:23:30;;;;;;;10.32;5.85;;;5.60;99.90;;;;;;4994649;28;20054;-82
2022/03/28 06:25:56;;;;;;;11.48;5.57;;;5.60;99.90;;;;;;4994541;28;20018;-82
2022/03/28 06:28:22;;;;;;;11.68;5.97;;;5.60;99.90;;;;;;4994190;28;20022;-82
2022/03/28 06:30:48;;;;;;;10.65;5.80;;;5.60;99.90;;;;;;4994266;28;20030;-82
2022/03/28 06:33:13;;;;;;;10.30;6.35;;;5.60;99.90;;;;;;4994496;28;20062;-82
2022/03/28 06:35:40;;;;;;;10.95;6.43;;;5.60;99.90;;;;;;4994507;28;20019;-82
2022/03/28 06:38:06;;;;;;;11.10;6.18;;;5.70;99.90;;;;;;4994185;28;20058;-82
2022/03/28 06:40:32;;;;;;;11.45;6.70;;;5.70;99.90;;;;;;4992932;28;20037;-82
2022/03/28 06:42:58;;;;;;;9.40;6.10;;;5.80;99.90;;;;;;4995146;28;20739;-82
2022/03/28 06:45:24;;;;;;;7.70;5.13;;;5.80;99.90;;;;;;4994433;28;20050;-83
2022/03/28 06:47:51;;;;;;;9.18;5.45;;;5.80;99.90;;;;;;4994341;28;20410;-82
2022/03/28 06:50:22;;;;;;;8.73;6.03;;;5.90;99.90;;;;;;4995053;28;20488;-82
2022/03/28 06:52:47;;;;;;;13.85;6.55;;;5.90;99.90;;;;;;4995802;28;20022;-82
2022/03/28 06:55:13;;;;;;;11.50;6.65;;;5.90;99.90;;;;;;4995397;28;20367;-82
2022/03/28 06:57:39;;;;;;;10.68;6.38;;;5.90;99.90;;;;;;4994174;28;20030;-82
2022/03/28 07:00:05;;;;;;;10.88;6.82;;;5.90;99.90;;;;;;4994325;28;20022;-82
2022/03/28 07:02:31;;;;;;;8.65;5.80;;;6.00;99.90;;;;;;4993888;28;20034;-82
2022/03/28 07:04:57;;;;;;;10.38;5.50;;;6.00;99.90;;;;;;4994498;28;20030;-82
2022/03/28 07:07:23;;;;;;;10.48;6.75;;;6.00;99.90;;;;;;4994298;28;20109;-82
2022/03/28 07:09:49;;;;;;;12.82;6.55;;;6.10;99.90;;;;;;4994193;28;20066;-83
2022/03/28 07:12:14;;;;;;;12.32;6.78;;;6.10;99.90;;;;;;4994372;28;20464;-83
2022/03/28 07:14:40;;;;;;;12.05;6.45;;;6.10;99.90;;;;;;4995257;28;20018;-82
2022/03/28 07:17:06;;;;;;;10.43;6.13;;;6.00;99.90;;;;;;4994267;28;20018;-82
2022/03/28 07:19:32;;;;;;;12.90;7.00;;;6.10;99.90;;;;;;4994587;28;20104;-82
2022/03/28 07:21:58;;;;;;;11.95;6.40;;;6.10;99.90;;;;;;4992634;28;20034;-83
2022/03/28 07:24:24;;;;;;;14.85;9.18;;;6.20;99.90;;;;;;4995991;28;20019;-82
2022/03/28 07:26:50;;;;;;;14.73;7.10;;;6.30;99.90;;;;;;4998668;28;20030;-82
2022/03/28 07:29:17;;;;;;;11.32;7.15;;;6.30;99.90;;;;;;4996751;28;20030;-82
2022/03/28 07:31:43;;;;;;;13.43;8.02;;;6.40;99.90;;;;;;4999207;28;20018;-82
2022/03/28 07:36:54;;;;;;;12.07;6.85;;;6.20;99.90;;;;;;4998710;28;20185;-83
2022/03/28 07:39:20;;;;;;;12.07;7.28;;;6.40;99.90;;;;;;4998354;28;20026;-83
2022/03/28 07:41:49;;;;;;;12.05;6.97;;;6.40;99.90;;;;;;4998478;28;20081;-82
2022/03/28 07:44:15;;;;;;;10.90;6.83;;;6.70;99.90;;;;;;4998643;28;20038;-82
2022/03/28 07:46:43;;;;;;;11.65;6.43;;;6.40;99.90;;;;;;4997784;28;20121;-82
2022/03/28 07:49:09;;;;;;;10.82;6.82;;;6.50;99.90;;;;;;4997195;28;20029;-82
2022/03/28 07:51:35;;;;;;;11.95;7.35;;;6.70;99.90;;;;;;4998926;28;20030;-82
2022/03/28 07:54:00;;;;;;;12.25;7.10;;;6.60;99.90;;;;;;4992620;28;20595;-82
2022/03/28 07:56:57;;;;;;;11.80;7.22;;;6.70;99.90;;;;;;4992905;28;20033;-82
2022/03/28 07:59:23;;;;;;;13.10;7.90;;;6.80;99.90;;;;;;4979538;28;20027;-82
2022/03/28 08:01:51;;;;;;;13.75;7.28;;;6.50;99.90;;;;;;4991981;28;20446;-82
2022/03/28 08:04:19;;;;;;;12.45;6.75;;;6.40;99.90;;;;;;4989342;28;20022;-82
2022/03/28 08:06:45;;;;;;;13.52;6.95;;;6.50;99.90;;;;;;4995901;28;20061;-83
2022/03/28 08:09:10;;;;;;;13.90;6.90;;;6.50;99.90;;;;;;4990582;28;20061;-82
2022/03/28 08:11:36;;;;;;;10.52;6.45;;;6.50;99.90;;;;;;4983467;28;20039;-82
2022/03/28 08:14:03;;;;;;;10.95;6.22;;;6.70;99.90;;;;;;4986715;28;20115;-82
2022/03/28 08:16:29;;;;;;;10.10;6.00;;;6.80;99.90;;;;;;4999128;28;20580;-82
2022/03/28 08:18:55;;;;;;;10.30;5.93;;;6.90;99.90;;;;;;4998600;28;20061;-82
2022/03/28 08:21:21;;;;;;;13.45;7.18;;;7.00;99.90;;;;;;4995347;28;20050;-84
2022/03/28 08:23:46;;;;;;;10.05;5.57;;;6.70;99.90;;;;;;4993306;28;20108;-83
2022/03/28 08:26:12;;;;;;;12.27;6.20;;;6.70;99.90;;;;;;4996042;28;20026;-83
2022/03/28 08:28:39;;;;;;;12.25;6.05;;;6.80;99.90;;;;;;4996193;28;20027;-83
2022/03/28 08:31:05;;;;;;;8.45;5.68;;;6.80;99.90;;;;;;4996446;28;20438;-83
2022/03/28 08:33:30;;;;;;;10.88;6.55;;;6.60;99.90;;;;;;4996041;28;20029;-83
2022/03/28 08:35:56;;;;;;;10.70;5.95;;;6.60;99.90;;;;;;4995765;28;20023;-83
2022/03/28 08:38:21;;;;;;;10.88;5.68;;;6.60;99.90;;;;;;4996083;28;20468;-83
2022/03/28 08:40:48;;;;;;;9.63;5.15;;;6.80;99.90;;;;;;4994220;28;20019;-83
2022/03/28 08:43:21;;;;;;;11.57;5.85;;;7.20;99.90;;;;;;4979050;28;20026;-83
2022/03/28 08:45:49;;;;;;;8.77;5.28;;;7.40;99.90;;;;;;4995561;28;20050;-84
2022/03/28 08:48:15;;;;;;;8.75;4.43;;;7.30;99.90;;;;;;4995812;28;20038;-84
2022/03/28 08:50:51;;;;;;;9.90;5.15;;;7.40;99.90;;;;;;4995524;28;20030;-83
2022/03/28 08:53:18;;;;;;;10.35;4.70;;;7.40;99.90;;;;;;4995655;28;20028;-84
2022/03/28 08:55:45;;;;;;;9.18;4.05;;;7.20;99.90;;;;;;4995256;28;20022;-83
2022/03/28 08:58:11;;;;;;;7.18;4.05;;;7.40;96.80;;;;;;4995429;28;20026;-83
2022/03/28 09:00:37;;;;;;;11.38;4.55;;;7.60;41.30;;;;;;4995632;28;20426;-82
2022/03/28 09:03:03;;;;;;;7.80;4.13;;;7.60;67.30;;;;;;4995311;28;20023;-83
2022/03/28 09:05:36;;;;;;;7.40;3.90;;;8.00;49.70;;;;;;4995608;28;20019;-83
2022/03/28 09:08:03;;;;;;;8.88;3.88;;;7.90;1.00;;;;;;4975925;28;20026;-83
2022/03/28 09:10:33;;;;;;;6.88;3.65;;;8.00;18.80;;;;;;4975725;28;20080;-83
2022/03/28 09:13:10;;;;;;;5.25;2.90;;;8.10;1.00;;;;;;4975912;28;20034;-83
2022/03/28 09:15:46;;;;;;;5.53;3.03;;;8.20;1.00;;;;;;4992071;28;20022;-83
2022/03/28 09:18:20;;;;;;;4.72;2.78;;;8.10;1.00;;;;;;4996182;28;20306;-83
2022/03/28 09:21:07;;;;;;;5.47;3.03;;;8.80;1.00;;;;;;4995216;28;20038;-83
2022/03/28 09:23:49;;;;;;;5.25;3.00;;;9.30;1.00;;;;;;4995339;28;20023;-83
2022/03/28 09:26:20;;;;;;;4.35;2.85;;;9.10;1.00;;;;;;4995356;28;20169;-83
2022/03/28 09:29:08;;;;;;;5.00;3.10;;;9.00;1.00;;;;;;4995215;28;20041;-83
2022/03/28 09:31:36;;;;;;;5.20;3.05;;;9.30;1.00;;;;;;4975554;28;20034;-83
2022/03/28 09:34:15;;;;;;;5.65;3.40;;;9.50;1.00;;;;;;4975509;28;20023;-83
2022/03/28 09:36:49;;;;;;;5.00;3.03;;;9.50;1.00;;;;;;4985417;28;20033;-83
2022/03/28 09:39:29;;;;;;;7.20;3.80;;;9.40;1.00;;;;;;4994839;28;20417;-83
2022/03/28 09:42:06;;;;;;;7.78;4.22;;;9.30;1.00;;;;;;4994798;28;20191;-83
2022/03/28 09:44:42;;;;;;;6.22;3.50;;;9.50;1.00;;;;;;4994365;28;20030;-83
2022/03/28 09:47:46;;;;;;;4.85;2.92;;;9.60;1.00;;;;;;4994213;28;20022;-83
2022/03/28 09:50:12;;;;;;;5.85;3.42;;;9.30;1.00;;;;;;4990270;28;20037;-83
2022/03/28 09:52:43;;;;;;;6.78;2.83;;;9.00;1.00;;;;;;4975002;28;20101;-83
2022/03/28 09:55:10;;;;;;;5.13;2.85;;;10.00;1.00;;;;;;4984479;28;20030;-83
2022/03/28 09:57:37;;;;;;;5.15;3.33;;;9.90;1.00;;;;;;4994721;28;20113;-83
2022/03/28 10:00:20;;;;;;;6.35;3.47;;;9.50;1.00;;;;;;4994560;28;20027;-83
2022/03/28 10:02:47;;;;;;;5.50;3.85;;;10.30;99.90;;;;;;4994371;28;20034;-83
2022/03/28 10:05:13;;;;;;;6.25;4.07;;;9.90;99.90;;;;;;4994278;28;20045;-83
2022/03/28 10:07:38;;;;;;;5.50;3.20;;;9.90;1.00;;;;;;4993968;28;20478;-83
2022/03/28 10:10:06;;;;;;;6.60;3.67;;;10.80;99.90;;;;;;4994108;28;20065;-83
2022/03/28 10:12:32;;;;;;;6.32;3.90;;;10.60;99.90;;;;;;4994813;28;20202;-83
2022/03/28 10:15:00;;;;;;;6.80;4.30;;;10.60;1.00;;;;;;4995342;28;20113;-83
2022/03/28 10:17:30;;;;;;;7.60;4.55;;;10.60;99.90;;;;;;4996076;28;20022;-83
2022/03/28 10:19:56;;;;;;;;;;;10.00;99.90;;;;;;4994582;28;20034;-83
2022/03/28 10:22:26;;;;;;;7.03;3.97;;;10.50;99.90;;;;;;4992525;28;19910;-83
2022/03/28 10:24:53;;;;;;;6.90;3.60;;;11.60;99.90;;;;;;4993884;28;20045;-82
2022/03/28 10:27:19;;;;;;;6.28;4.40;;;10.70;99.90;;;;;;4992848;28;20037;-83
2022/03/28 10:29:45;;;;;;;6.63;4.07;;;10.40;99.90;;;;;;4994504;28;20030;-83
2022/03/28 10:32:17;;;;;;;8.15;4.28;;;11.30;99.90;;;;;;4994524;28;20097;-83
2022/03/28 10:34:52;;;;;;;7.80;4.45;;;11.00;99.90;;;;;;4994048;28;20171;-83
2022/03/28 10:37:35;;;;;;;7.45;5.10;;;11.40;99.90;;;;;;4994051;28;20031;-83
2022/03/28 10:40:21;;;;;;;8.77;5.65;;;11.70;99.90;;;;;;4994286;28;20109;-83
2022/03/28 10:43:12;;;;;;;8.27;4.20;;;11.00;99.90;;;;;;4994670;28;20105;-83
2022/03/28 10:46:00;;;;;;;6.40;4.50;;;10.50;99.90;;;;;;4974890;28;20046;-83
2022/03/28 10:48:39;;;;;;;5.85;3.95;;;10.90;99.90;;;;;;4987368;28;20146;-83
2022/03/28 10:51:24;;;;;;;7.63;4.82;;;11.80;99.90;;;;;;4983787;28;20041;-83
2022/03/28 10:53:56;;;;;;;7.28;4.10;;;12.20;99.90;;;;;;4994557;28;20058;-83
2022/03/28 10:56:33;;;;;;;7.68;5.30;;;12.60;99.90;;;;;;4984533;28;20446;-82
2022/03/28 10:59:10;;;;;;;6.95;5.05;;;11.90;99.90;;;;;;4977320;28;20030;-83
2022/03/28 11:01:44;;;;;;;8.55;5.13;;;11.40;99.90;;;;;;4991115;28;20078;-83
2022/03/28 11:04:15;;;;;;;7.00;4.72;;;11.70;99.90;;;;;;4997042;28;20030;-83
2022/03/28 11:07:03;;;;;;;9.13;5.20;;;12.30;99.90;;;;;;4996529;28;20026;-83
2022/03/28 11:09:45;;;;;;;8.93;5.25;;;12.60;99.90;;;;;;4978628;28;20070;-82
2022/03/28 11:12:16;;;;;;;7.43;4.78;;;12.30;99.90;;;;;;4978370;28;20019;-83
2022/03/28 11:14:45;;;;;;;8.80;5.85;;;12.00;99.90;;;;;;4985896;28;20018;-83
2022/03/28 11:17:16;;;;;;;8.38;5.40;;;11.80;99.90;;;;;;4998809;28;20029;-81
2022/03/28 11:19:51;;;;;;;7.32;5.00;;;13.00;99.90;;;;;;4998207;28;20150;-81
2022/03/28 11:22:17;;;;;;;9.30;5.57;;;13.60;99.90;;;;;;4997254;28;20029;-81
2022/03/28 11:24:56;;;;;;;8.20;5.72;;;13.70;99.90;;;;;;4997774;28;20385;-81
2022/03/28 11:27:30;;;;;;;8.35;5.75;;;13.10;99.90;;;;;;4997639;28;20027;-82
2022/03/28 11:30:05;;;;;;;9.65;6.03;;;11.40;99.90;;;;;;4997540;28;20026;-82
2022/03/28 11:32:33;;;;;;;9.75;6.00;;;11.80;99.90;;;;;;4997249;28;20030;-82
2022/03/28 11:34:59;;;;;;;9.50;6.00;;;12.90;99.90;;;;;;4996939;28;20355;-82
2022/03/28 11:37:29;;;;;;;9.35;6.13;;;13.10;99.90;;;;;;4997234;28;20058;-82
2022/03/28 11:40:05;;;;;;;8.65;5.57;;;12.30;99.90;;;;;;4996816;28;20463;-82
2022/03/28 11:42:33;;;;;;;8.35;5.78;;;13.40;99.90;;;;;;4996054;28;20034;-82
2022/03/28 11:45:10;;;;;;;10.45;6.50;;;13.90;99.90;;;;;;4997182;28;20047;-84
2022/03/28 11:47:38;;;;;;;10.05;6.00;;;13.30;99.90;;;;;;4997378;28;20033;-82
2022/03/28 11:50:08;;;;;;;10.23;6.57;;;13.70;99.90;;;;;;4997317;28;20034;-81
2022/03/28 11:52:34;;;;;;;9.70;6.32;;;14.10;99.90;;;;;;4997059;28;20428;-83
2022/03/28 11:55:00;;;;;;;12.02;6.82;;;13.90;99.90;;;;;;4997080;28;20038;-83
2022/03/28 12:00:24;;;;;;;13.00;6.97;;;13.00;99.90;;;;;;4997221;28;20053;-83
2022/03/28 12:02:58;;;;;;;10.98;7.40;;;13.40;99.90;;;;;;4997317;28;20033;-83
2022/03/28 12:05:34;;;;;;;14.30;7.70;;;13.50;99.90;;;;;;4997050;28;20030;-83
2022/03/28 12:08:06;;;;;;;11.77;7.22;;;12.20;99.90;;;;;;4996926;28;20026;-83
2022/03/28 12:10:34;;;;;;;11.55;7.28;;;12.90;99.90;;;;;;4996462;28;20038;-83
2022/03/28 12:13:03;;;;;;;13.27;8.25;;;12.70;99.90;;;;;;4997189;28;20109;-83
2022/03/28 12:15:30;;;;;;;11.38;8.07;;;13.00;99.90;;;;;;4997346;28;20057;-82
2022/03/28 12:18:00;;;;;;;12.00;7.68;;;13.10;99.90;;;;;;4997002;28;20121;-83
2022/03/28 12:20:29;;;;;;;13.73;7.68;;;13.30;99.90;;;;;;4996822;28;20105;-82
2022/03/28 12:22:55;;;;;;;12.60;8.10;;;12.40;99.90;;;;;;4977154;28;20030;-82
2022/03/28 12:25:30;;;;;;;14.50;8.48;;;13.00;99.90;;;;;;4977212;28;20018;-82
2022/03/28 12:28:01;;;;;;;13.43;8.05;;;13.10;99.90;;;;;;4977025;28;20090;-82
2022/03/28 12:30:32;;;;;;;12.50;9.20;;;12.90;99.90;;;;;;4977072;28;20114;-83
2022/03/28 12:33:11;;;;;;;11.85;8.30;;;13.00;99.90;;;;;;4977156;28;20102;-83
2022/03/28 12:35:43;;;;;;;11.52;8.00;;;13.50;99.90;;;;;;4977180;28;20475;-83
2022/03/28 12:38:15;;;;;;;12.30;7.95;;;13.90;99.90;;;;;;4986944;28;20069;-83
2022/03/28 12:40:44;;;;;;;11.40;7.93;;;14.80;99.90;;;;;;4996569;28;20478;-83
2022/03/28 12:43:11;;;;;;;13.07;8.75;;;14.80;99.90;;;;;;4994983;28;20060;-82
2022/03/28 12:45:38;;;;;;;11.48;8.00;;;14.30;99.90;;;;;;4996037;28;20379;-83
2022/03/28 12:48:07;;;;;;;11.07;7.63;;;14.40;99.90;;;;;;4996096;28;20371;-83
2022/03/28 12:50:34;;;;;;;13.52;8.40;;;14.70;99.90;;;;;;4996366;28;20026;-83
2022/03/28 12:53:14;;;;;;;10.90;7.50;;;14.90;99.90;;;;;;4996261;28;20049;-83
2022/03/28 12:55:41;;;;;;;11.85;8.13;;;15.50;99.90;;;;;;4994707;28;20018;-83
2022/03/28 12:58:07;;;;;;;12.85;8.13;;;15.60;99.90;;;;;;4995384;28;20031;-83
2022/03/28 13:00:34;;;;;;;11.75;8.45;;;14.30;99.90;;;;;;4995934;28;20083;-83
2022/03/28 13:03:03;;;;;;;13.98;9.02;;;15.40;99.90;;;;;;4995818;28;20019;-83
2022/03/28 13:05:30;;;;;;;12.15;8.25;;;15.60;99.90;;;;;;4995853;28;20028;-83
2022/03/28 13:08:13;;;;;;;12.10;7.30;;;15.10;99.90;;;;;;4995791;28;20030;-83
2022/03/28 13:10:41;;;;;;;13.25;8.35;;;15.10;99.90;;;;;;4995701;28;20037;-83
2022/03/28 13:13:07;;;;;;;12.55;7.95;;;15.50;99.90;;;;;;4996182;28;20030;-83